sensor_id;sensor_type;location;lat;lon;timestamp;pressure;altitude;pressure_sealevel;temperature;humidity
30554;BME280;17335;50.720;7.452;2022-10-16T00:01:28;98937.78;;;13.59;100.00
30554;BME280;17335;50.720;7.452;2022-10-16T00:03:59;98947.69;;;13.66;100.00
30554;BME280;17335;50.720;7.452;2022-10-16T00:06:27;98945.53;;;13.62;100.00
30554;BME280;17335;50.720;7.452;2022-10-16T00:08:54;98944.69;;;13.61;100.00
30554;BME280;17335;50.720;7.452;2022-10-16T00:11:25;98935.09;;;13.59;100.00
30554;BME280;17335;50.720;7.452;2022-10-16T00:13:56;98936.41;;;13.63;100.00
30554;BME280;17335;50.720;7.452;2022-10-16T00:16:23;98942.47;;;13.65;100.00
30554;BME280;17335;50.720;7.452;2022-10-16T00:18:49;98946.00;;;13.74;100.00
30554;BME280;17335;50.720;7.452;2022-10-16T00:21:19;98941.13;;;13.69;100.00
30554;BME280;17335;50.720;7.452;2022-10-16T00:23:46;98949.25;;;13.61;100.00
30554;BME280;17335;50.720;7.452;2022-10-16T00:26:15;98953.06;;;13.75;100.00
30554;BME280;17335;50.720;7.452;2022-10-16T00:28:45;98950.56;;;13.65;100.00
30554;BME280;17335;50.720;7.452;2022-10-16T00:31:13;98949.88;;;13.71;100.00
30554;BME280;17335;50.720;7.452;2022-10-16T00:33:40;98955.09;;;13.73;100.00
30554;BME280;17335;50.720;7.452;2022-10-16T00:36:10;98946.03;;;13.65;100.00
30554;BME280;17335;50.720;7.452;2022-10-16T00:38:37;98948.06;;;13.63;100.00
30554;BME280;17335;50.720;7.452;2022-10-16T00:41:09;98953.31;;;13.57;100.00
30554;BME280;17335;50.720;7.452;2022-10-16T00:43:45;98956.69;;;13.50;100.00
30554;BME280;17335;50.720;7.452;2022-10-16T00:46:20;98966.78;;;13.57;100.00
30554;BME280;17335;50.720;7.452;2022-10-16T00:49:02;98975.56;;;13.50;100.00
30554;BME280;17335;50.720;7.452;2022-10-16T00:51:35;98962.59;;;13.46;100.00
30554;BME280;17335;50.720;7.452;2022-10-16T00:54:04;98964.47;;;13.37;100.00
30554;BME280;17335;50.720;7.452;2022-10-16T00:56:32;98967.50;;;13.42;100.00
30554;BME280;17335;50.720;7.452;2022-10-16T00:59:02;98979.31;;;13.41;100.00
30554;BME280;17335;50.720;7.452;2022-10-16T01:01:30;98973.25;;;13.39;100.00
30554;BME280;17335;50.720;7.452;2022-10-16T01:03:56;98963.44;;;13.46;100.00
30554;BME280;17335;50.720;7.452;2022-10-16T01:06:42;98948.66;;;13.34;100.00
30554;BME280;17335;50.720;7.452;2022-10-16T01:11:55;98963.63;;;13.37;100.00
30554;BME280;17335;50.720;7.452;2022-10-16T01:14:40;98959.63;;;13.32;100.00
30554;BME280;17335;50.720;7.452;2022-10-16T01:17:12;98961.09;;;13.27;100.00
30554;BME280;17335;50.720;7.452;2022-10-16T01:20:03;98959.91;;;13.29;100.00
30554;BME280;17335;50.720;7.452;2022-10-16T01:25:14;98965.97;;;13.23;100.00
30554;BME280;17335;50.720;7.452;2022-10-16T01:27:42;98970.53;;;13.31;100.00
30554;BME280;17335;50.720;7.452;2022-10-16T01:30:29;98966.16;;;13.22;100.00
30554;BME280;17335;50.720;7.452;2022-10-16T01:35:30;98957.91;;;13.23;100.00
30554;BME280;17335;50.720;7.452;2022-10-16T01:38:21;98956.75;;;13.34;100.00
30554;BME280;17335;50.720;7.452;2022-10-16T01:40:53;98972.72;;;13.36;100.00
30554;BME280;17335;50.720;7.452;2022-10-16T01:43:34;98975.63;;;13.34;100.00
30554;BME280;17335;50.720;7.452;2022-10-16T01:46:03;98972.56;;;13.29;100.00
30554;BME280;17335;50.720;7.452;2022-10-16T01:48:32;98973.56;;;13.20;100.00
30554;BME280;17335;50.720;7.452;2022-10-16T01:51:09;98977.31;;;13.10;100.00
30554;BME280;17335;50.720;7.452;2022-10-16T01:53:37;98980.66;;;13.04;100.00
30554;BME280;17335;50.720;7.452;2022-10-16T01:56:06;98984.34;;;13.11;100.00
30554;BME280;17335;50.720;7.452;2022-10-16T01:58:38;98977.13;;;13.12;100.00
30554;BME280;17335;50.720;7.452;2022-10-16T02:01:07;98976.63;;;13.08;100.00
30554;BME280;17335;50.720;7.452;2022-10-16T02:03:37;98988.09;;;13.02;100.00
30554;BME280;17335;50.720;7.452;2022-10-16T02:06:07;98995.34;;;13.02;100.00
30554;BME280;17335;50.720;7.452;2022-10-16T02:08:34;98995.16;;;13.03;100.00
30554;BME280;17335;50.720;7.452;2022-10-16T02:11:02;98984.06;;;12.98;100.00
30554;BME280;17335;50.720;7.452;2022-10-16T02:16:05;98979.34;;;13.00;100.00
30554;BME280;17335;50.720;7.452;2022-10-16T02:18:42;98991.09;;;12.99;100.00
30554;BME280;17335;50.720;7.452;2022-10-16T02:21:13;98989.78;;;13.03;100.00
30554;BME280;17335;50.720;7.452;2022-10-16T02:27:05;98989.09;;;13.09;100.00
30554;BME280;17335;50.720;7.452;2022-10-16T02:29:39;98992.31;;;13.05;100.00
30554;BME280;17335;50.720;7.452;2022-10-16T02:32:08;98993.47;;;13.19;100.00
30554;BME280;17335;50.720;7.452;2022-10-16T02:34:36;98986.06;;;13.21;100.00
30554;BME280;17335;50.720;7.452;2022-10-16T02:37:05;98990.75;;;13.27;100.00
30554;BME280;17335;50.720;7.452;2022-10-16T02:39:33;98998.66;;;13.28;100.00
30554;BME280;17335;50.720;7.452;2022-10-16T02:42:00;99009.63;;;13.35;100.00
30554;BME280;17335;50.720;7.452;2022-10-16T02:44:27;99005.94;;;13.36;100.00
30554;BME280;17335;50.720;7.452;2022-10-16T02:46:57;98992.28;;;13.38;100.00
30554;BME280;17335;50.720;7.452;2022-10-16T02:49:23;98995.47;;;13.41;100.00
30554;BME280;17335;50.720;7.452;2022-10-16T02:51:50;99003.56;;;13.41;100.00
30554;BME280;17335;50.720;7.452;2022-10-16T02:54:16;99008.25;;;13.47;100.00
30554;BME280;17335;50.720;7.452;2022-10-16T02:56:42;99010.97;;;13.47;100.00
30554;BME280;17335;50.720;7.452;2022-10-16T02:59:09;99013.66;;;13.47;100.00
30554;BME280;17335;50.720;7.452;2022-10-16T03:01:36;99022.44;;;13.49;100.00
30554;BME280;17335;50.720;7.452;2022-10-16T03:04:03;99012.47;;;13.50;100.00
30554;BME280;17335;50.720;7.452;2022-10-16T03:06:29;99011.66;;;13.49;100.00
30554;BME280;17335;50.720;7.452;2022-10-16T03:08:56;99005.25;;;13.42;100.00
30554;BME280;17335;50.720;7.452;2022-10-16T03:11:22;99005.06;;;13.44;100.00
30554;BME280;17335;50.720;7.452;2022-10-16T03:13:49;99011.00;;;13.39;100.00
30554;BME280;17335;50.720;7.452;2022-10-16T03:16:15;99008.09;;;13.41;100.00
30554;BME280;17335;50.720;7.452;2022-10-16T03:18:42;99016.53;;;13.46;100.00
30554;BME280;17335;50.720;7.452;2022-10-16T03:21:08;99007.28;;;13.40;100.00
30554;BME280;17335;50.720;7.452;2022-10-16T03:23:35;99001.72;;;13.42;100.00
30554;BME280;17335;50.720;7.452;2022-10-16T03:26:01;99001.72;;;13.34;100.00
30554;BME280;17335;50.720;7.452;2022-10-16T03:28:28;98997.00;;;13.36;100.00
30554;BME280;17335;50.720;7.452;2022-10-16T03:30:54;98988.91;;;13.27;100.00
30554;BME280;17335;50.720;7.452;2022-10-16T03:33:21;98996.81;;;13.37;100.00
30554;BME280;17335;50.720;7.452;2022-10-16T03:35:52;98999.84;;;13.42;100.00
30554;BME280;17335;50.720;7.452;2022-10-16T03:38:19;99021.06;;;13.45;100.00
30554;BME280;17335;50.720;7.452;2022-10-16T03:40:47;99026.81;;;13.42;100.00
30554;BME280;17335;50.720;7.452;2022-10-16T03:43:13;99016.19;;;13.49;100.00
30554;BME280;17335;50.720;7.452;2022-10-16T03:45:39;99015.34;;;13.40;100.00
30554;BME280;17335;50.720;7.452;2022-10-16T03:48:06;99013.38;;;13.34;100.00
30554;BME280;17335;50.720;7.452;2022-10-16T03:50:33;99003.41;;;13.35;100.00
30554;BME280;17335;50.720;7.452;2022-10-16T03:52:59;99008.28;;;13.31;100.00
30554;BME280;17335;50.720;7.452;2022-10-16T03:55:26;99003.59;;;13.33;100.00
30554;BME280;17335;50.720;7.452;2022-10-16T03:57:52;99000.56;;;13.36;100.00
30554;BME280;17335;50.720;7.452;2022-10-16T04:00:19;99002.22;;;13.37;100.00
30554;BME280;17335;50.720;7.452;2022-10-16T04:02:45;99007.97;;;13.34;100.00
30554;BME280;17335;50.720;7.452;2022-10-16T04:05:12;99002.59;;;13.34;100.00
30554;BME280;17335;50.720;7.452;2022-10-16T04:07:38;99010.31;;;13.37;100.00
30554;BME280;17335;50.720;7.452;2022-10-16T04:10:05;99018.06;;;13.40;100.00
30554;BME280;17335;50.720;7.452;2022-10-16T04:12:32;99031.53;;;13.40;100.00
30554;BME280;17335;50.720;7.452;2022-10-16T04:14:58;99020.25;;;13.45;100.00
30554;BME280;17335;50.720;7.452;2022-10-16T04:17:25;99023.44;;;13.40;100.00
30554;BME280;17335;50.720;7.452;2022-10-16T04:19:52;99030.53;;;13.41;100.00
30554;BME280;17335;50.720;7.452;2022-10-16T04:22:18;99032.03;;;13.52;100.00
30554;BME280;17335;50.720;7.452;2022-10-16T04:24:45;99033.22;;;13.49;100.00
30554;BME280;17335;50.720;7.452;2022-10-16T04:27:11;99042.16;;;13.50;100.00
30554;BME280;17335;50.720;7.452;2022-10-16T04:29:38;99042.31;;;13.57;100.00
30554;BME280;17335;50.720;7.452;2022-10-16T04:32:04;99045.50;;;13.60;100.00
30554;BME280;17335;50.720;7.452;2022-10-16T04:34:31;99041.81;;;13.53;100.00
30554;BME280;17335;50.720;7.452;2022-10-16T04:36:58;99038.25;;;13.53;100.00
30554;BME280;17335;50.720;7.452;2022-10-16T04:39:24;99047.72;;;13.48;100.00
30554;BME280;17335;50.720;7.452;2022-10-16T04:41:51;99041.97;;;13.52;100.00
30554;BME280;17335;50.720;7.452;2022-10-16T04:44:17;99037.59;;;13.50;100.00
30554;BME280;17335;50.720;7.452;2022-10-16T04:46:44;99052.75;;;13.52;100.00
30554;BME280;17335;50.720;7.452;2022-10-16T04:49:10;99051.72;;;13.61;100.00
30554;BME280;17335;50.720;7.452;2022-10-16T04:51:37;99048.03;;;13.54;100.00
30554;BME280;17335;50.720;7.452;2022-10-16T04:54:03;99047.03;;;13.55;100.00
30554;BME280;17335;50.720;7.452;2022-10-16T04:56:30;99052.06;;;13.58;100.00
30554;BME280;17335;50.720;7.452;2022-10-16T04:58:57;99057.81;;;13.55;100.00
30554;BME280;17335;50.720;7.452;2022-10-16T05:01:23;99059.16;;;13.50;100.00
30554;BME280;17335;50.720;7.452;2022-10-16T05:03:50;99055.78;;;13.57;100.00
30554;BME280;17335;50.720;7.452;2022-10-16T05:06:16;99056.63;;;13.49;100.00
30554;BME280;17335;50.720;7.452;2022-10-16T05:08:43;99068.25;;;13.58;100.00
30554;BME280;17335;50.720;7.452;2022-10-16T05:11:09;99086.13;;;13.59;100.00
30554;BME280;17335;50.720;7.452;2022-10-16T05:13:36;99087.50;;;13.55;100.00
30554;BME280;17335;50.720;7.452;2022-10-16T05:16:02;99084.78;;;13.55;100.00
30554;BME280;17335;50.720;7.452;2022-10-16T05:18:29;99083.25;;;13.52;100.00
30554;BME280;17335;50.720;7.452;2022-10-16T05:20:55;99078.38;;;13.47;100.00
30554;BME280;17335;50.720;7.452;2022-10-16T05:23:22;99072.97;;;13.47;100.00
30554;BME280;17335;50.720;7.452;2022-10-16T05:25:53;99071.47;;;13.53;100.00
30554;BME280;17335;50.720;7.452;2022-10-16T05:28:20;99086.97;;;13.51;100.00
30554;BME280;17335;50.720;7.452;2022-10-16T05:30:47;99085.47;;;13.48;100.00
30554;BME280;17335;50.720;7.452;2022-10-16T05:33:13;99092.22;;;13.44;100.00
30554;BME280;17335;50.720;7.452;2022-10-16T05:35:40;99092.56;;;13.49;100.00
30554;BME280;17335;50.720;7.452;2022-10-16T05:38:06;99081.41;;;13.53;100.00
30554;BME280;17335;50.720;7.452;2022-10-16T05:40:33;99096.09;;;13.50;100.00
30554;BME280;17335;50.720;7.452;2022-10-16T05:42:59;99092.19;;;13.53;100.00
30554;BME280;17335;50.720;7.452;2022-10-16T05:45:26;99089.16;;;13.47;100.00
30554;BME280;17335;50.720;7.452;2022-10-16T05:47:52;99068.78;;;13.45;100.00
30554;BME280;17335;50.720;7.452;2022-10-16T05:50:19;99078.03;;;13.50;100.00
30554;BME280;17335;50.720;7.452;2022-10-16T05:52:45;99093.22;;;13.43;100.00
30554;BME280;17335;50.720;7.452;2022-10-16T05:55:12;99095.59;;;13.55;100.00
30554;BME280;17335;50.720;7.452;2022-10-16T05:57:41;99112.09;;;13.52;100.00
30554;BME280;17335;50.720;7.452;2022-10-16T06:00:08;99110.41;;;13.50;100.00
30554;BME280;17335;50.720;7.452;2022-10-16T06:02:34;99108.53;;;13.51;100.00
30554;BME280;17335;50.720;7.452;2022-10-16T06:05:01;99111.59;;;13.48;100.00
30554;BME280;17335;50.720;7.452;2022-10-16T06:07:27;99109.22;;;13.53;100.00
30554;BME280;17335;50.720;7.452;2022-10-16T06:09:54;99112.59;;;13.55;100.00
30554;BME280;17335;50.720;7.452;2022-10-16T06:12:21;99114.75;;;13.60;100.00
30554;BME280;17335;50.720;7.452;2022-10-16T06:14:47;99119.16;;;13.53;100.00
30554;BME280;17335;50.720;7.452;2022-10-16T06:17:15;99123.06;;;13.58;100.00
30554;BME280;17335;50.720;7.452;2022-10-16T06:19:41;99120.03;;;13.53;100.00
30554;BME280;17335;50.720;7.452;2022-10-16T06:22:08;99125.03;;;13.56;100.00
30554;BME280;17335;50.720;7.452;2022-10-16T06:24:34;99128.94;;;13.62;100.00
30554;BME280;17335;50.720;7.452;2022-10-16T06:27:04;99127.09;;;13.62;100.00
30554;BME280;17335;50.720;7.452;2022-10-16T06:29:30;99139.38;;;13.65;100.00
30554;BME280;17335;50.720;7.452;2022-10-16T06:31:58;99139.03;;;13.60;100.00
30554;BME280;17335;50.720;7.452;2022-10-16T06:34:24;99147.13;;;13.60;100.00
30554;BME280;17335;50.720;7.452;2022-10-16T06:36:51;99143.44;;;13.61;100.00
30554;BME280;17335;50.720;7.452;2022-10-16T06:39:17;99144.13;;;13.55;100.00
30554;BME280;17335;50.720;7.452;2022-10-16T06:41:45;99156.25;;;13.59;100.00
30554;BME280;17335;50.720;7.452;2022-10-16T06:44:11;99161.31;;;13.62;100.00
30554;BME280;17335;50.720;7.452;2022-10-16T06:46:38;99164.16;;;13.60;100.00
30554;BME280;17335;50.720;7.452;2022-10-16T06:49:05;99168.38;;;13.63;100.00
30554;BME280;17335;50.720;7.452;2022-10-16T06:51:31;99163.31;;;13.68;100.00
30554;BME280;17335;50.720;7.452;2022-10-16T06:54:05;99162.81;;;13.64;100.00
30554;BME280;17335;50.720;7.452;2022-10-16T06:56:33;99179.00;;;13.64;100.00
30554;BME280;17335;50.720;7.452;2022-10-16T06:59:00;99184.72;;;13.69;100.00
30554;BME280;17335;50.720;7.452;2022-10-16T07:01:28;99196.84;;;13.82;100.00
30554;BME280;17335;50.720;7.452;2022-10-16T07:03:55;99194.84;;;13.76;100.00
30554;BME280;17335;50.720;7.452;2022-10-16T07:06:23;99204.13;;;13.81;100.00
30554;BME280;17335;50.720;7.452;2022-10-16T07:08:50;99194.00;;;13.83;100.00
30554;BME280;17335;50.720;7.452;2022-10-16T07:11:19;99187.59;;;13.93;100.00
30554;BME280;17335;50.720;7.452;2022-10-16T07:13:47;99194.00;;;13.92;100.00
30554;BME280;17335;50.720;7.452;2022-10-16T07:16:26;99194.16;;;13.98;100.00
30554;BME280;17335;50.720;7.452;2022-10-16T07:18:56;99191.09;;;14.10;100.00
30554;BME280;17335;50.720;7.452;2022-10-16T07:21:29;99215.38;;;14.10;100.00
30554;BME280;17335;50.720;7.452;2022-10-16T07:23:58;99216.25;;;14.02;100.00
30554;BME280;17335;50.720;7.452;2022-10-16T07:26:26;99222.97;;;14.06;100.00
30554;BME280;17335;50.720;7.452;2022-10-16T07:28:53;99230.41;;;14.04;100.00
30554;BME280;17335;50.720;7.452;2022-10-16T07:31:21;99236.16;;;14.17;100.00
30554;BME280;17335;50.720;7.452;2022-10-16T07:33:48;99241.53;;;14.17;100.00
30554;BME280;17335;50.720;7.452;2022-10-16T07:36:16;99245.94;;;14.18;100.00
30554;BME280;17335;50.720;7.452;2022-10-16T07:38:43;99243.22;;;14.26;100.00
30554;BME280;17335;50.720;7.452;2022-10-16T07:41:12;99247.09;;;14.24;100.00
30554;BME280;17335;50.720;7.452;2022-10-16T07:43:39;99261.09;;;14.36;100.00
30554;BME280;17335;50.720;7.452;2022-10-16T07:46:06;99262.44;;;14.40;100.00
30554;BME280;17335;50.720;7.452;2022-10-16T07:48:34;99273.91;;;14.42;100.00
30554;BME280;17335;50.720;7.452;2022-10-16T07:51:03;99280.34;;;14.41;100.00
30554;BME280;17335;50.720;7.452;2022-10-16T07:53:31;99285.03;;;14.47;100.00
30554;BME280;17335;50.720;7.452;2022-10-16T07:56:04;99288.41;;;14.57;100.00
30554;BME280;17335;50.720;7.452;2022-10-16T07:58:31;99292.97;;;14.65;100.00
30554;BME280;17335;50.720;7.452;2022-10-16T08:00:59;99284.00;;;14.73;100.00
30554;BME280;17335;50.720;7.452;2022-10-16T08:03:28;99292.09;;;14.81;100.00
30554;BME280;17335;50.720;7.452;2022-10-16T08:05:57;99289.03;;;14.92;100.00
30554;BME280;17335;50.720;7.452;2022-10-16T08:08:24;99298.28;;;14.98;100.00
30554;BME280;17335;50.720;7.452;2022-10-16T08:10:51;99293.34;;;15.10;100.00
30554;BME280;17335;50.720;7.452;2022-10-16T08:13:18;99292.81;;;15.14;100.00
30554;BME280;17335;50.720;7.452;2022-10-16T08:15:45;99311.19;;;15.27;100.00
30554;BME280;17335;50.720;7.452;2022-10-16T08:18:13;99305.09;;;15.33;100.00
30554;BME280;17335;50.720;7.452;2022-10-16T08:20:40;99300.34;;;15.35;100.00
30554;BME280;17335;50.720;7.452;2022-10-16T08:23:09;99295.91;;;15.43;100.00
30554;BME280;17335;50.720;7.452;2022-10-16T08:25:36;99297.19;;;15.55;100.00
30554;BME280;17335;50.720;7.452;2022-10-16T08:28:07;99299.63;;;15.73;100.00
30554;BME280;17335;50.720;7.452;2022-10-16T08:30:34;99287.28;;;15.70;100.00
30554;BME280;17335;50.720;7.452;2022-10-16T08:33:01;99290.50;;;15.66;100.00
30554;BME280;17335;50.720;7.452;2022-10-16T08:35:28;99301.31;;;15.66;100.00
30554;BME280;17335;50.720;7.452;2022-10-16T08:37:54;99300.88;;;15.54;100.00
30554;BME280;17335;50.720;7.452;2022-10-16T08:40:24;99298.59;;;15.43;100.00
30554;BME280;17335;50.720;7.452;2022-10-16T08:48:46;99322.09;;;15.03;100.00
30554;BME280;17335;50.720;7.452;2022-10-16T08:51:26;99323.94;;;15.10;100.00
30554;BME280;17335;50.720;7.452;2022-10-16T08:53:54;99327.44;;;15.19;100.00
30554;BME280;17335;50.720;7.452;2022-10-16T08:56:22;99327.72;;;15.32;100.00
30554;BME280;17335;50.720;7.452;2022-10-16T08:58:49;99325.63;;;15.51;100.00
30554;BME280;17335;50.720;7.452;2022-10-16T09:01:22;99320.09;;;15.75;100.00
30554;BME280;17335;50.720;7.452;2022-10-16T09:09:43;99325.72;;;15.97;100.00
30554;BME280;17335;50.720;7.452;2022-10-16T09:12:22;99328.28;;;16.13;100.00
30554;BME280;17335;50.720;7.452;2022-10-16T09:17:39;99339.06;;;16.22;100.00
30554;BME280;17335;50.720;7.452;2022-10-16T09:22:55;99327.22;;;16.38;100.00
30554;BME280;17335;50.720;7.452;2022-10-16T09:25:27;99332.66;;;16.38;100.00
30554;BME280;17335;50.720;7.452;2022-10-16T09:27:54;99335.47;;;16.44;100.00
30554;BME280;17335;50.720;7.452;2022-10-16T09:30:22;99343.47;;;16.61;100.00
30554;BME280;17335;50.720;7.452;2022-10-16T09:32:51;99347.78;;;16.70;100.00
30554;BME280;17335;50.720;7.452;2022-10-16T09:35:27;99351.88;;;16.81;100.00
30554;BME280;17335;50.720;7.452;2022-10-16T09:37:57;99340.53;;;16.85;100.00
30554;BME280;17335;50.720;7.452;2022-10-16T09:40:39;99348.59;;;16.94;100.00
30554;BME280;17335;50.720;7.452;2022-10-16T09:46:20;99342.41;;;17.00;100.00
30554;BME280;17335;50.720;7.452;2022-10-16T09:48:46;99326.22;;;17.06;100.00
30554;BME280;17335;50.720;7.452;2022-10-16T09:51:24;99339.03;;;16.98;100.00
30554;BME280;17335;50.720;7.452;2022-10-16T09:54:00;99339.41;;;16.95;100.00
30554;BME280;17335;50.720;7.452;2022-10-16T09:56:33;99333.78;;;16.96;100.00
30554;BME280;17335;50.720;7.452;2022-10-16T09:59:14;99327.19;;;16.99;100.00
30554;BME280;17335;50.720;7.452;2022-10-16T10:01:46;99321.56;;;17.00;100.00
30554;BME280;17335;50.720;7.452;2022-10-16T10:04:13;99317.63;;;17.03;100.00
30554;BME280;17335;50.720;7.452;2022-10-16T10:06:45;99317.06;;;17.08;100.00
30554;BME280;17335;50.720;7.452;2022-10-16T10:09:22;99315.47;;;17.13;100.00
30554;BME280;17335;50.720;7.452;2022-10-16T10:14:21;99315.56;;;17.20;100.00
30554;BME280;17335;50.720;7.452;2022-10-16T10:16:50;99320.91;;;17.13;100.00
30554;BME280;17335;50.720;7.452;2022-10-16T10:19:22;99312.66;;;17.21;100.00
30554;BME280;17335;50.720;7.452;2022-10-16T10:21:52;99309.94;;;17.21;100.00
30554;BME280;17335;50.720;7.452;2022-10-16T10:24:19;99303.47;;;17.22;100.00
30554;BME280;17335;50.720;7.452;2022-10-16T10:27:00;99296.66;;;17.41;100.00
30554;BME280;17335;50.720;7.452;2022-10-16T10:32:03;99298.13;;;17.29;100.00
30554;BME280;17335;50.720;7.452;2022-10-16T10:34:38;99302.25;;;17.40;100.00
30554;BME280;17335;50.720;7.452;2022-10-16T10:40:22;99295.72;;;17.71;100.00
30554;BME280;17335;50.720;7.452;2022-10-16T10:42:59;99292.78;;;17.87;100.00
30554;BME280;17335;50.720;7.452;2022-10-16T10:45:43;99291.88;;;18.02;100.00
30554;BME280;17335;50.720;7.452;2022-10-16T10:48:20;99291.09;;;18.08;100.00
30554;BME280;17335;50.720;7.452;2022-10-16T10:50:57;99282.94;;;18.08;100.00
30554;BME280;17335;50.720;7.452;2022-10-16T11:06:58;99289.78;;;18.25;100.00
30554;BME280;17335;50.720;7.452;2022-10-16T11:12:05;99292.19;;;18.35;100.00
30554;BME280;17335;50.720;7.452;2022-10-16T11:17:38;99298.50;;;18.42;100.00
30554;BME280;17335;50.720;7.452;2022-10-16T11:20:12;99297.34;;;18.58;100.00
30554;BME280;17335;50.720;7.452;2022-10-16T11:22:55;99304.84;;;18.78;100.00
30554;BME280;17335;50.720;7.452;2022-10-16T11:25:31;99299.25;;;18.86;100.00
30554;BME280;17335;50.720;7.452;2022-10-16T11:28:19;99303.78;;;18.79;100.00
30554;BME280;17335;50.720;7.452;2022-10-16T11:30:53;99309.38;;;18.70;100.00
30554;BME280;17335;50.720;7.452;2022-10-16T11:36:39;99305.44;;;18.45;100.00
30554;BME280;17335;50.720;7.452;2022-10-16T11:39:09;99305.13;;;18.33;100.00
30554;BME280;17335;50.720;7.452;2022-10-16T11:44:27;99313.59;;;18.23;100.00
30554;BME280;17335;50.720;7.452;2022-10-16T11:49:55;99315.75;;;18.56;100.00
30554;BME280;17335;50.720;7.452;2022-10-16T11:52:52;99316.28;;;19.01;100.00
30554;BME280;17335;50.720;7.452;2022-10-16T11:55:23;99315.34;;;19.16;100.00
30554;BME280;17335;50.720;7.452;2022-10-16T11:58:03;99307.56;;;19.13;100.00
30554;BME280;17335;50.720;7.452;2022-10-16T12:00:40;99318.41;;;19.06;100.00
30554;BME280;17335;50.720;7.452;2022-10-16T12:08:21;99325.53;;;18.79;100.00
30554;BME280;17335;50.720;7.452;2022-10-16T12:10:49;99321.94;;;18.71;100.00
30554;BME280;17335;50.720;7.452;2022-10-16T12:13:38;99329.34;;;18.56;100.00
30554;BME280;17335;50.720;7.452;2022-10-16T12:18:39;99331.44;;;18.32;100.00
30554;BME280;17335;50.720;7.452;2022-10-16T12:21:06;99331.19;;;18.27;100.00
30554;BME280;17335;50.720;7.452;2022-10-16T12:23:45;99327.75;;;18.18;100.00
30554;BME280;17335;50.720;7.452;2022-10-16T12:26:12;99323.81;;;18.21;100.00
30554;BME280;17335;50.720;7.452;2022-10-16T12:28:39;99329.47;;;18.20;100.00
30554;BME280;17335;50.720;7.452;2022-10-16T12:31:08;99335.47;;;18.15;100.00
30554;BME280;17335;50.720;7.452;2022-10-16T12:33:40;99345.69;;;18.13;100.00
30554;BME280;17335;50.720;7.452;2022-10-16T12:36:26;99347.88;;;18.03;100.00
30554;BME280;17335;50.720;7.452;2022-10-16T12:38:53;99341.34;;;17.97;100.00
30554;BME280;17335;50.720;7.452;2022-10-16T12:41:39;99337.31;;;17.93;100.00
30554;BME280;17335;50.720;7.452;2022-10-16T12:44:22;99351.97;;;17.92;100.00
30554;BME280;17335;50.720;7.452;2022-10-16T12:46:50;99363.66;;;17.92;100.00
30554;BME280;17335;50.720;7.452;2022-10-16T12:49:37;99359.53;;;17.96;100.00
30554;BME280;17335;50.720;7.452;2022-10-16T12:52:44;99353.50;;;18.01;100.00
30554;BME280;17335;50.720;7.452;2022-10-16T12:55:18;99350.03;;;18.07;100.00
30554;BME280;17335;50.720;7.452;2022-10-16T12:58:12;99359.00;;;18.08;100.00
30554;BME280;17335;50.720;7.452;2022-10-16T13:03:44;99337.47;;;18.28;100.00
30554;BME280;17335;50.720;7.452;2022-10-16T13:17:45;99317.22;;;19.15;100.00
30554;BME280;17335;50.720;7.452;2022-10-16T13:23:13;99315.84;;;19.33;100.00
30554;BME280;17335;50.720;7.452;2022-10-16T13:28:22;99332.38;;;18.96;100.00
30554;BME280;17335;50.720;7.452;2022-10-16T13:30:57;99342.38;;;18.89;100.00
30554;BME280;17335;50.720;7.452;2022-10-16T13:33:37;99342.75;;;18.86;100.00
30554;BME280;17335;50.720;7.452;2022-10-16T13:36:06;99334.69;;;18.99;100.00
30554;BME280;17335;50.720;7.452;2022-10-16T13:38:34;99325.13;;;19.03;100.00
30554;BME280;17335;50.720;7.452;2022-10-16T13:41:14;99330.34;;;19.05;100.00
30554;BME280;17335;50.720;7.452;2022-10-16T13:43:43;99332.38;;;18.96;100.00
30554;BME280;17335;50.720;7.452;2022-10-16T13:46:19;99336.03;;;18.82;100.00
30554;BME280;17335;50.720;7.452;2022-10-16T13:49:03;99343.28;;;18.74;100.00
30554;BME280;17335;50.720;7.452;2022-10-16T13:51:31;99339.88;;;18.66;100.00
30554;BME280;17335;50.720;7.452;2022-10-16T13:53:58;99348.19;;;18.58;100.00
30554;BME280;17335;50.720;7.452;2022-10-16T13:56:28;99355.75;;;18.62;100.00
30554;BME280;17335;50.720;7.452;2022-10-16T13:59:04;99352.66;;;18.65;100.00
30554;BME280;17335;50.720;7.452;2022-10-16T14:01:42;99354.81;;;18.77;100.00
30554;BME280;17335;50.720;7.452;2022-10-16T14:04:11;99353.19;;;18.82;100.00
30554;BME280;17335;50.720;7.452;2022-10-16T14:06:45;99348.69;;;18.96;100.00
30554;BME280;17335;50.720;7.452;2022-10-16T14:09:29;99346.25;;;19.08;100.00
30554;BME280;17335;50.720;7.452;2022-10-16T14:12:06;99349.25;;;19.20;100.00
30554;BME280;17335;50.720;7.452;2022-10-16T14:14:42;99346.94;;;19.17;100.00
30554;BME280;17335;50.720;7.452;2022-10-16T14:17:22;99336.34;;;18.93;100.00
30554;BME280;17335;50.720;7.452;2022-10-16T14:19:51;99340.31;;;18.69;100.00
30554;BME280;17335;50.720;7.452;2022-10-16T14:22:31;99344.81;;;18.55;100.00
30554;BME280;17335;50.720;7.452;2022-10-16T14:24:59;99355.00;;;18.47;100.00
30554;BME280;17335;50.720;7.452;2022-10-16T14:27:30;99359.34;;;18.41;100.00
30554;BME280;17335;50.720;7.452;2022-10-16T14:30:19;99360.31;;;18.33;100.00
30554;BME280;17335;50.720;7.452;2022-10-16T14:32:58;99358.63;;;18.32;100.00
30554;BME280;17335;50.720;7.452;2022-10-16T14:35:28;99343.16;;;18.33;100.00
30554;BME280;17335;50.720;7.452;2022-10-16T14:37:57;99356.94;;;18.31;100.00
30554;BME280;17335;50.720;7.452;2022-10-16T14:40:30;99363.41;;;18.30;100.00
30554;BME280;17335;50.720;7.452;2022-10-16T14:42:57;99364.47;;;18.29;100.00
30554;BME280;17335;50.720;7.452;2022-10-16T14:45:27;99359.66;;;18.31;100.00